This is the latest recevied weather packets stored in our database for station/object KC2G. If no packets are shown the sender has not sent any weather packets the latest 10 day(s).
| Time | Temp. | Humidity | Pressure | Rain* | Wind** | Luminosity | Snow |
|---|---|---|---|---|---|---|---|
| 1777998655 | 25.56° C | 45% | 1008.1 hPa | 0 mm | 0.89 m/s, 104° | - | - |
| 1777997755 | 25.56° C | 46% | 1008.3 hPa | 0 mm | 0.89 m/s, 122° | - | - |
| 1777996856 | 25° C | 46% | 1008.6 hPa | 0 mm | 0.45 m/s, 114° | - | - |
| 1777995955 | 25° C | 47% | 1008.9 hPa | 0 mm | 0.89 m/s, 238° | - | - |
| 1777995055 | 24.44° C | 48% | 1009 hPa | 0 mm | 0.89 m/s, 163° | - | - |
| 1777994154 | 23.89° C | 51% | 1009.1 hPa | 0 mm | 0.45 m/s, 196° | - | - |
| 1777994027 | 22.78° C | 54% | 1009.7 hPa | 0 mm | 1.34 m/s, 186° | - | - |
| 1777993255 | 23.33° C | 53% | 1009.4 hPa | 0 mm | 0.45 m/s, 159° | - | - |
| 1777992355 | 22.78° C | 54% | 1009.7 hPa | 0 mm | 1.34 m/s, 186° | - | - |
| 1777992112 | 22.22° C | 55% | 1009.8 hPa | 0 mm | 0.45 m/s, 112° | - | - |
| 1777991455 | 22.22° C | 54% | 1009.8 hPa | 0 mm | 0.89 m/s, 117° | - | - |
| 1777990555 | 22.22° C | 55% | 1009.8 hPa | 0 mm | 0.45 m/s, 112° | - | - |
| 1777989655 | 21.11° C | 58% | 1009.9 hPa | 0 mm | 0.45 m/s, 88° | - | - |
| 1777988755 | 21.11° C | 57% | 1010.1 hPa | 0 mm | 0.45 m/s, 140° | - | - |
| 1777987856 | 20.56° C | 60% | 1010.2 hPa | 0 mm | 0.45 m/s, 85° | - | - |
| 1777986954 | 20° C | 61% | 1010 hPa | 0 mm | 0.89 m/s, 109° | - | - |
| 1777986353 | 18.89° C | 69% | 1010.1 hPa | 0 mm | 0 m/s | - | - |
| 1777986055 | 20° C | 64% | 1010 hPa | 0 mm | 0.45 m/s, 70° | - | - |
| 1777985155 | 18.89° C | 69% | 1010.1 hPa | 0 mm | 0 m/s | - | - |
| 1777984437 | 14.44° C | 83% | 1010.8 hPa | 0 mm | 0.45 m/s, 132° | - | - |
| 1777984255 | 16.11° C | 76% | 1010.4 hPa | 0 mm | 0 m/s | - | - |
| 1777983355 | 14.44° C | 83% | 1010.8 hPa | 0 mm | 0.45 m/s, 132° | - | - |
| 1777982500 | 11.11° C | 98% | 1010.4 hPa | 0 mm | 0 m/s | - | - |
| 1777982455 | 12.78° C | 89% | 1010.8 hPa | 0 mm | 0 m/s | - | - |
| 1777981555 | 11.67° C | 97% | 1010.7 hPa | 0 mm | 0 m/s | - | - |
* Rain latest hour (hover to see other rain measurements)
** Current wind speed in m/s (hover to see current wind gust speed)